Time;durP1;ratioP1;P1;durP2;ratioP2;P2;SDS_P1;SDS_P2;PMS_P1;PMS_P2;Temp;Humidity;BMP_temperature;BMP_pressure;BME280_temperature;BME280_humidity;BME280_pressure;Samples;Min_cycle;Max_cycle;Signal;HPM_P1;HPM_P2
2023/04/18 00:01:37;;;;;;;;;;;10.40;99.90;;;;;;5092915;28;19942;-71
2023/04/18 00:04:03;;;;;;;;;;;10.30;99.90;;;;;;5073288;28;19958;-73
2023/04/18 00:06:34;;;;;;;;;;;10.30;99.90;;;;;;5072816;28;19999;-71
2023/04/18 00:09:00;;;;;;;;;;;10.20;99.90;;;;;;5075890;28;20446;-72
2023/04/18 00:11:26;;;;;;;;;;;10.20;99.90;;;;;;5076703;28;19913;-72
2023/04/18 00:13:51;;;;;;;;;;;10.30;99.90;;;;;;5076421;28;19916;-72
2023/04/18 00:16:17;;;;;;;;;;;10.30;99.90;;;;;;5058000;28;19909;-71
2023/04/18 00:18:43;;;;;;;;;;;10.30;99.90;;;;;;5076477;28;19912;-73
2023/04/18 00:21:08;;;;;;;;;;;10.30;99.90;;;;;;5076344;28;19916;-71
2023/04/18 00:23:34;;;;;;;;;;;10.20;99.90;;;;;;5076475;28;19932;-72
2023/04/18 00:26:00;;;;;;;;;;;10.10;99.90;;;;;;5075697;28;19932;-73
2023/04/18 00:28:26;;;;;;;;;;;10.10;99.90;;;;;;5058465;28;20265;-72
2023/04/18 00:30:51;;;;;;;;;;;10.00;99.90;;;;;;5076302;28;19909;-71
2023/04/18 00:33:17;;;;;;;;;;;10.00;99.90;;;;;;5076089;28;20295;-70
2023/04/18 00:35:42;;;;;;;;;;;10.00;99.90;;;;;;5075584;28;19920;-72
2023/04/18 00:38:08;;;;;;;;;;;10.00;99.90;;;;;;5076215;28;19908;-71
2023/04/18 00:40:33;;;;;;;;;;;9.90;99.90;;;;;;5075762;28;19925;-72
2023/04/18 00:42:59;;;;;;;;;;;9.90;99.90;;;;;;5076252;28;20372;-71
2023/04/18 00:45:25;;;;;;;;;;;9.80;99.90;;;;;;5075520;28;19951;-71
2023/04/18 00:47:50;;;;;;;;;;;9.80;99.90;;;;;;5075946;28;19912;-73
2023/04/18 00:50:16;;;;;;;;;;;9.80;99.90;;;;;;5075890;28;20373;-71
2023/04/18 00:52:42;;;;;;;;;;;9.80;99.90;;;;;;5075776;28;19916;-72
2023/04/18 00:55:08;;;;;;;;;;;9.80;99.90;;;;;;5075386;28;19912;-71
2023/04/18 00:57:34;;;;;;;;;;;9.80;99.90;;;;;;5057725;28;19912;-72
2023/04/18 01:00:01;;;;;;;;;;;9.70;99.90;;;;;;5057853;28;19916;-71
2023/04/18 01:02:29;;;;;;;;;;;9.60;99.90;;;;;;5075127;28;20383;-71
2023/04/18 01:04:55;;;;;;;;;;;9.60;99.90;;;;;;5075332;28;19953;-73
2023/04/18 01:07:21;;;;;;;;;;;9.60;99.90;;;;;;5075591;28;19923;-71
2023/04/18 01:09:46;;;;;;;;;;;9.70;99.90;;;;;;5075404;28;19909;-70
2023/04/18 01:12:12;;;;;;;;;;;9.70;99.90;;;;;;5075577;28;19915;-72
2023/04/18 01:14:41;;;;;;;;;;;9.60;99.90;;;;;;5074971;28;19920;-71
2023/04/18 01:17:09;;;;;;;;;;;9.60;99.90;;;;;;5057483;28;19908;-71
2023/04/18 01:19:36;;;;;;;;;;;9.50;99.90;;;;;;5074100;28;20014;-73
2023/04/18 01:22:02;;;;;;;;;;;9.50;99.90;;;;;;5075122;28;19915;-72
2023/04/18 01:24:30;;;;;;;;;;;9.50;99.90;;;;;;5075091;28;19909;-72
2023/04/18 01:26:56;;;;;;;;;;;9.50;99.90;;;;;;5075225;28;19909;-71
2023/04/18 01:29:22;;;;;;;;;;;9.50;99.90;;;;;;5075212;28;19909;-72
2023/04/18 01:31:47;;;;;;;;;;;9.50;99.90;;;;;;5057151;28;19908;-72
2023/04/18 01:34:13;;;;;;;;;;;9.40;99.90;;;;;;5074908;28;19927;-71
2023/04/18 01:36:39;;;;;;;;;;;9.40;99.90;;;;;;5074507;28;19912;-70
2023/04/18 01:39:05;;;;;;;;;;;9.40;99.90;;;;;;5075055;28;19999;-72
2023/04/18 01:41:31;;;;;;;;;;;9.40;99.90;;;;;;5053417;28;20314;-72
2023/04/18 01:43:57;;;;;;;;;;;9.40;99.90;;;;;;5054885;28;19909;-73
2023/04/18 01:46:22;;;;;;;;;;;9.40;99.90;;;;;;5054376;28;19909;-73
2023/04/18 01:48:48;;;;;;;;;;;9.50;99.90;;;;;;5054768;28;19915;-71
2023/04/18 01:51:14;;;;;;;;;;;9.40;99.90;;;;;;5054818;28;20344;-72
2023/04/18 01:53:39;;;;;;;;;;;9.30;99.90;;;;;;5054871;28;20358;-73
2023/04/18 01:56:05;;;;;;;;;;;9.50;99.90;;;;;;5054187;28;19909;-71
2023/04/18 01:58:30;;;;;;;;;;;9.40;99.90;;;;;;5054616;28;20288;-72
2023/04/18 02:00:56;;;;;;;;;;;9.60;99.90;;;;;;5054542;28;19909;-71
2023/04/18 02:03:22;;;;;;;;;;;9.40;99.90;;;;;;5054635;28;20007;-71
2023/04/18 02:05:48;;;;;;;;;;;9.40;99.90;;;;;;5052771;28;20289;-72
2023/04/18 02:08:13;;;;;;;;;;;9.40;99.90;;;;;;5054497;28;19927;-71
2023/04/18 02:10:39;;;;;;;;;;;9.50;99.90;;;;;;5054162;28;20339;-70
2023/04/18 02:13:05;;;;;;;;;;;9.50;99.90;;;;;;5054347;28;20284;-73
2023/04/18 02:15:31;;;;;;;;;;;9.40;99.90;;;;;;5053959;28;19917;-71
2023/04/18 02:17:58;;;;;;;;;;;9.40;99.90;;;;;;5054203;28;19916;-71
2023/04/18 02:20:25;;;;;;;;;;;9.40;99.90;;;;;;5054272;28;19913;-72
2023/04/18 02:22:51;;;;;;;;;;;9.40;99.90;;;;;;5053863;28;20004;-72
2023/04/18 02:25:17;;;;;;;;;;;9.30;99.90;;;;;;5053812;28;20370;-71
2023/04/18 02:27:43;;;;;;;;;;;9.20;99.90;;;;;;5054174;28;19923;-69
2023/04/18 02:30:09;;;;;;;;;;;9.10;99.90;;;;;;5053648;28;19913;-71
2023/04/18 02:32:34;;;;;;;;;;;9.10;99.90;;;;;;5054135;28;19944;-72
2023/04/18 02:35:00;;;;;;;;;;;9.00;99.90;;;;;;5052055;28;19958;-71
2023/04/18 02:37:26;;;;;;;;;;;8.90;99.90;;;;;;5052604;28;20381;-72
2023/04/18 02:39:52;;;;;;;;;;;8.90;99.90;;;;;;5054636;28;19909;-71
2023/04/18 02:42:17;;;;;;;;;;;8.90;99.90;;;;;;5074373;28;19944;-72
2023/04/18 02:44:43;;;;;;;;;;;8.90;99.90;;;;;;5073552;28;19944;-72
2023/04/18 02:47:08;;;;;;;;;;;8.90;99.90;;;;;;5073359;28;20296;-72
2023/04/18 02:49:34;;;;;;;;;;;8.90;99.90;;;;;;5073739;28;19908;-72
2023/04/18 02:51:59;;;;;;;;;;;8.90;99.90;;;;;;5073667;28;20011;-71
2023/04/18 02:54:25;;;;;;;;;;;8.90;99.90;;;;;;5073586;28;19912;-72
2023/04/18 02:56:52;;;;;;;;;;;9.00;99.90;;;;;;5073136;28;19908;-71
2023/04/18 02:59:18;;;;;;;;;;;9.10;99.90;;;;;;5073172;28;19915;-72
2023/04/18 03:01:43;;;;;;;;;;;9.10;99.90;;;;;;5073617;28;19912;-71
2023/04/18 03:04:09;;;;;;;;;;;8.90;99.90;;;;;;5073361;28;19962;-73
2023/04/18 03:06:35;;;;;;;;;;;8.90;99.90;;;;;;5055005;28;19909;-71
2023/04/18 03:09:01;;;;;;;;;;;8.80;99.90;;;;;;5073426;28;19908;-71
2023/04/18 03:11:27;;;;;;;;;;;8.80;99.90;;;;;;5073432;28;19936;-72
2023/04/18 03:13:53;;;;;;;;;;;8.80;99.90;;;;;;5073317;28;19958;-71
2023/04/18 03:16:18;;;;;;;;;;;8.70;99.90;;;;;;5072852;28;19948;-71
2023/04/18 03:18:44;;;;;;;;;;;8.70;99.90;;;;;;5055332;28;19936;-72
2023/04/18 03:21:10;;;;;;;;;;;8.70;99.90;;;;;;5055194;28;19958;-70
2023/04/18 03:23:36;;;;;;;;;;;8.70;99.90;;;;;;5073297;28;19916;-72
2023/04/18 03:26:01;;;;;;;;;;;8.80;99.90;;;;;;5072894;28;19909;-71
2023/04/18 03:28:27;;;;;;;;;;;8.70;99.90;;;;;;5073158;28;19938;-72
2023/04/18 03:30:52;;;;;;;;;;;8.70;99.90;;;;;;5073519;28;19909;-72
2023/04/18 03:33:18;;;;;;;;;;;8.80;99.90;;;;;;5055388;28;19913;-73
2023/04/18 03:35:44;;;;;;;;;;;8.70;99.90;;;;;;5072784;28;19965;-71
2023/04/18 03:38:10;;;;;;;;;;;8.70;99.90;;;;;;5073104;28;19908;-72
2023/04/18 03:40:35;;;;;;;;;;;8.70;99.90;;;;;;5072914;28;19920;-72
2023/04/18 03:43:01;;;;;;;;;;;8.80;99.90;;;;;;5074727;28;19908;-71
2023/04/18 03:45:26;;;;;;;;;;;8.70;99.90;;;;;;5076859;28;19908;-72
2023/04/18 03:47:52;;;;;;;;;;;8.80;99.90;;;;;;5077190;28;19952;-73
2023/04/18 03:50:17;;;;;;;;;;;8.70;99.90;;;;;;5076992;28;19915;-71
2023/04/18 03:52:43;;;;;;;;;;;8.70;99.90;;;;;;5077042;28;20109;-73
2023/04/18 03:55:10;;;;;;;;;;;8.70;99.90;;;;;;5076628;28;19912;-72
2023/04/18 03:57:35;;;;;;;;;;;8.70;99.90;;;;;;5076758;28;19931;-73
2023/04/18 04:00:01;;;;;;;;;;;8.70;99.90;;;;;;5077022;28;20377;-73
2023/04/18 04:02:26;;;;;;;;;;;8.50;99.90;;;;;;5076771;28;19978;-72
2023/04/18 04:04:52;;;;;;;;;;;8.60;99.90;;;;;;5076766;28;19958;-71
2023/04/18 04:07:17;;;;;;;;;;;8.70;99.90;;;;;;5076545;28;20284;-71
2023/04/18 04:09:43;;;;;;;;;;;8.80;99.90;;;;;;5076466;28;19984;-72
2023/04/18 04:12:09;;;;;;;;;;;8.80;99.90;;;;;;5076578;28;19908;-72
2023/04/18 04:14:34;;;;;;;;;;;8.90;99.90;;;;;;5058427;28;19912;-72
2023/04/18 04:17:00;;;;;;;;;;;9.00;99.90;;;;;;5076060;28;20323;-72
2023/04/18 04:19:25;;;;;;;;;;;9.10;99.90;;;;;;5076435;28;19908;-73
2023/04/18 04:21:51;;;;;;;;;;;9.20;99.90;;;;;;5076338;28;20399;-72
2023/04/18 04:24:17;;;;;;;;;;;9.30;99.90;;;;;;5076419;28;19909;-71
2023/04/18 04:26:43;;;;;;;;;;;9.30;99.90;;;;;;5075868;28;19908;-71
2023/04/18 04:29:09;;;;;;;;;;;9.40;99.90;;;;;;5076472;28;19915;-72
2023/04/18 04:31:35;;;;;;;;;;;9.50;99.90;;;;;;5076209;28;19909;-72
2023/04/18 04:34:02;;;;;;;;;;;9.60;99.90;;;;;;5076117;28;20296;-73
2023/04/18 04:36:28;;;;;;;;;;;9.70;99.90;;;;;;5075745;28;19908;-72
2023/04/18 04:38:53;;;;;;;;;;;9.80;99.90;;;;;;5076140;28;19908;-72
2023/04/18 04:41:19;;;;;;;;;;;9.90;99.90;;;;;;5075790;28;19920;-73
2023/04/18 04:43:45;;;;;;;;;;;9.90;99.90;;;;;;5075951;28;20003;-72
2023/04/18 04:46:13;;;;;;;;;;;9.90;99.90;;;;;;5075625;28;19974;-72
2023/04/18 04:48:39;;;;;;;;;;;9.90;99.90;;;;;;5075851;28;19995;-72
2023/04/18 04:51:04;;;;;;;;;;;10.00;99.90;;;;;;5075981;28;20006;-72
2023/04/18 04:53:30;;;;;;;;;;;9.90;99.90;;;;;;5075590;28;19908;-72
2023/04/18 04:55:56;;;;;;;;;;;9.90;99.90;;;;;;5075439;28;20274;-71
2023/04/18 04:58:21;;;;;;;;;;;10.00;99.90;;;;;;5075685;28;19912;-71
2023/04/18 05:00:49;;;;;;;;;;;10.00;99.90;;;;;;5075701;28;20387;-73
2023/04/18 05:03:15;;;;;;;;;;;9.90;99.90;;;;;;5075699;28;19961;-71
2023/04/18 05:05:40;;;;;;;;;;;9.90;99.90;;;;;;5075078;28;20005;-73
2023/04/18 05:08:06;;;;;;;;;;;10.00;99.90;;;;;;5075681;28;19909;-71
2023/04/18 05:10:32;;;;;;;;;;;9.90;99.90;;;;;;5075315;28;20403;-71
2023/04/18 05:12:57;;;;;;;;;;;9.90;99.90;;;;;;5075451;28;19914;-72
2023/04/18 05:15:23;;;;;;;;;;;10.00;99.90;;;;;;5075080;28;19912;-72
2023/04/18 05:17:49;;;;;;;;;;;9.90;99.90;;;;;;5075381;28;19959;-73
2023/04/18 05:20:14;;;;;;;;;;;9.80;99.90;;;;;;5075457;28;19912;-73
2023/04/18 05:22:40;;;;;;;;;;;9.70;99.90;;;;;;5075055;28;19909;-72
2023/04/18 05:25:06;;;;;;;;;;;9.70;99.90;;;;;;5075293;28;19908;-71
2023/04/18 05:27:32;;;;;;;;;;;9.70;99.90;;;;;;5074982;28;19909;-72
2023/04/18 05:29:57;;;;;;;;;;;9.70;99.90;;;;;;5075103;28;19957;-71
2023/04/18 05:32:23;;;;;;;;;;;9.70;99.90;;;;;;5074746;28;20297;-72
2023/04/18 05:34:48;;;;;;;;;;;9.80;99.90;;;;;;5074682;28;20043;-71
2023/04/18 05:37:14;;;;;;;;;;;9.80;99.90;;;;;;5074083;28;19920;-72
2023/04/18 05:39:40;;;;;;;;;;;9.70;99.90;;;;;;5075030;28;20367;-71
2023/04/18 05:42:06;;;;;;;;;;;9.60;99.90;;;;;;5074846;28;19920;-73
2023/04/18 05:44:31;;;;;;;;;;;9.70;99.90;;;;;;5075005;28;20331;-72
2023/04/18 05:46:57;;;;;;;;;;;9.70;99.90;;;;;;5074334;28;19999;-73
2023/04/18 05:49:23;;;;;;;;;;;9.70;99.90;;;;;;5074865;28;19999;-72
2023/04/18 05:51:48;;;;;;;;;;;9.80;99.90;;;;;;5074742;28;19915;-71
2023/04/18 05:54:14;;;;;;;;;;;9.80;99.90;;;;;;5074669;28;19930;-73
2023/04/18 05:56:40;;;;;;;;;;;9.80;99.90;;;;;;5056263;28;20392;-72
2023/04/18 05:59:06;;;;;;;;;;;9.80;99.90;;;;;;5074454;28;19916;-71
2023/04/18 06:01:32;;;;;;;;;;;9.80;99.90;;;;;;5074658;28;19934;-72
2023/04/18 06:03:57;;;;;;;;;;;10.00;99.90;;;;;;5074449;28;20002;-71
2023/04/18 06:06:23;;;;;;;;;;;10.10;99.90;;;;;;5055467;28;19988;-72
2023/04/18 06:08:49;;;;;;;;;;;10.30;99.90;;;;;;5074421;28;19917;-71
2023/04/18 06:11:14;;;;;;;;;;;10.40;99.90;;;;;;5056499;28;19920;-70
2023/04/18 06:13:40;;;;;;;;;;;10.50;99.90;;;;;;5074240;28;20360;-73
2023/04/18 06:16:06;;;;;;;;;;;10.60;99.90;;;;;;5073878;28;19912;-71
2023/04/18 06:18:32;;;;;;;;;;;10.70;99.90;;;;;;5074345;28;19916;-71
2023/04/18 06:20:57;;;;;;;;;;;10.90;99.90;;;;;;5074032;28;20523;-72
2023/04/18 06:23:23;;;;;;;;;;;11.20;99.90;;;;;;5074105;28;19912;-71
2023/04/18 06:25:48;;;;;;;;;;;11.70;99.90;;;;;;5073726;28;19908;-73
2023/04/18 06:28:14;;;;;;;;;;;12.10;99.90;;;;;;5073954;28;19981;-72
2023/04/18 06:30:40;;;;;;;;;;;12.50;99.90;;;;;;5074125;28;19908;-72
2023/04/18 06:33:09;;;;;;;;;;;12.80;99.90;;;;;;5073861;28;20287;-71
2023/04/18 06:35:34;;;;;;;;;;;13.00;99.90;;;;;;5055715;28;19916;-72
2023/04/18 06:38:00;;;;;;;;;;;13.30;99.90;;;;;;5073862;28;19909;-71
2023/04/18 06:40:25;;;;;;;;;;;13.10;99.90;;;;;;5073631;28;20452;-71
2023/04/18 06:42:51;;;;;;;;;;;13.00;99.90;;;;;;5073847;28;20288;-72
2023/04/18 06:45:17;;;;;;;;;;;13.10;99.90;;;;;;5073572;28;19934;-73
2023/04/18 06:47:42;;;;;;;;;;;13.00;99.90;;;;;;5073233;28;19988;-73
2023/04/18 06:50:08;;;;;;;;;;;13.10;99.90;;;;;;5073461;28;19997;-72
2023/04/18 06:52:39;;;;;;;;;;;13.10;99.90;;;;;;5073697;28;19917;-72
2023/04/18 06:55:05;;;;;;;;;;;13.20;99.90;;;;;;5055231;28;19951;-71
2023/04/18 06:57:30;;;;;;;;;;;13.10;99.90;;;;;;5073449;28;19915;-71
2023/04/18 06:59:56;;;;;;;;;;;13.40;99.90;;;;;;5055591;28;19951;-72
2023/04/18 07:02:22;;;;;;;;;;;13.70;99.90;;;;;;5073593;28;19909;-71
2023/04/18 07:04:48;;;;;;;;;;;13.70;99.90;;;;;;5073591;28;19958;-72
2023/04/18 07:07:13;;;;;;;;;;;13.80;99.90;;;;;;5072922;28;19963;-71
2023/04/18 07:09:39;;;;;;;;;;;13.90;99.90;;;;;;5073623;28;19999;-72
2023/04/18 07:12:09;;;;;;;;;;;13.90;99.90;;;;;;5073788;28;19958;-72
2023/04/18 07:14:35;;;;;;;;;;;14.20;99.90;;;;;;5074010;28;19920;-75
2023/04/18 07:17:01;;;;;;;;;;;14.40;99.90;;;;;;5073441;28;19909;-72
2023/04/18 07:19:26;;;;;;;;;;;14.60;99.90;;;;;;5055826;28;19939;-73
2023/04/18 07:21:53;;;;;;;;;;;14.80;99.90;;;;;;5073576;28;19908;-72
2023/04/18 07:24:19;;;;;;;;;;;15.10;99.90;;;;;;5073967;28;20373;-74
2023/04/18 07:26:45;;;;;;;;;;;15.40;99.90;;;;;;5073257;28;19999;-75
2023/04/18 07:29:10;;;;;;;;;;;16.00;99.90;;;;;;5073668;28;19915;-74
2023/04/18 07:31:36;;;;;;;;;;;16.40;99.90;;;;;;5074050;28;19912;-73
2023/04/18 07:34:02;;;;;;;;;;;16.60;99.90;;;;;;5073580;28;19919;-72
2023/04/18 07:36:27;;;;;;;;;;;16.90;99.90;;;;;;5073372;28;19908;-73
2023/04/18 07:38:53;;;;;;;;;;;17.00;99.90;;;;;;5073805;28;19908;-73
2023/04/18 07:41:18;;;;;;;;;;;17.40;99.90;;;;;;5073365;28;19927;-74
2023/04/18 07:43:44;;;;;;;;;;;18.10;99.90;;;;;;5073795;28;20241;-71
2023/04/18 07:46:10;;;;;;;;;;;18.60;99.90;;;;;;5077124;28;20326;-73
2023/04/18 07:48:35;;;;;;;;;;;19.00;99.90;;;;;;5093904;28;20322;-72
2023/04/18 07:51:02;;;;;;;;;;;19.80;99.90;;;;;;5093816;28;19909;-73
2023/04/18 07:53:28;;;;;;;;;;;20.40;99.90;;;;;;5075592;28;19995;-73
2023/04/18 07:55:54;;;;;;;;;;;20.80;99.90;;;;;;5093497;28;20359;-74
2023/04/18 07:58:20;;;;;;;;;;;21.50;99.90;;;;;;5093471;28;19994;-73
2023/04/18 08:00:45;;;;;;;;;;;22.10;99.90;;;;;;5093805;28;19994;-72
2023/04/18 08:03:11;;;;;;;;;;;22.30;99.90;;;;;;5075535;28;19908;-73
2023/04/18 08:05:41;;;;;;;;;;;22.60;99.90;;;;;;5093676;28;19908;-73
2023/04/18 08:08:09;;;;;;;;;;;23.20;99.90;;;;;;5093271;28;19908;-72
2023/04/18 08:10:35;;;;;;;;;;;23.60;99.90;;;;;;5093560;28;20371;-74
2023/04/18 08:13:01;;;;;;;;;;;23.60;99.90;;;;;;5093512;28;19915;-73
2023/04/18 08:15:27;;;;;;;;;;;23.90;99.90;;;;;;5093354;28;20387;-73
2023/04/18 08:17:56;;;;;;;;;;;24.60;99.90;;;;;;5093245;28;20395;-72
2023/04/18 08:20:22;;;;;;;;;;;23.40;99.90;;;;;;5092893;28;19908;-72
2023/04/18 08:22:47;;;;;;;;;;;23.70;99.90;;;;;;5074571;28;19915;-75
2023/04/18 08:25:13;;;;;;;;;;;24.80;99.90;;;;;;5093031;28;19914;-73
2023/04/18 08:27:38;;;;;;;;;;;25.50;99.90;;;;;;5093057;28;19908;-73
2023/04/18 08:30:06;;;;;;;;;;;25.80;99.90;;;;;;5078248;28;19951;-72
2023/04/18 08:32:32;;;;;;;;;;;26.70;99.90;;;;;;5096626;28;19978;-73
2023/04/18 08:34:57;;;;;;;;;;;27.20;99.90;;;;;;5096235;28;20363;-73
2023/04/18 08:37:23;;;;;;;;;;;25.90;99.90;;;;;;5096613;28;19919;-73
2023/04/18 08:39:49;;;;;;;;;;;26.20;99.90;;;;;;5097088;28;19994;-74
2023/04/18 08:42:18;;;;;;;;;;;27.80;99.90;;;;;;5096968;28;20417;-74
2023/04/18 08:44:44;;;;;;;;;;;28.70;99.90;;;;;;5097033;28;19944;-73
2023/04/18 08:47:12;;;;;;;;;;;28.70;99.90;;;;;;5095932;28;20208;-73
2023/04/18 08:49:38;;;;;;;;;;;29.10;99.90;;;;;;5096635;28;20287;-73
2023/04/18 08:52:14;;;;;;;;;;;29.50;99.90;;;;;;5078724;28;19977;-75
2023/04/18 08:54:44;;;;;;;;;;;29.10;99.90;;;;;;5096548;28;19912;-74
2023/04/18 08:57:11;;;;;;;;;;;28.50;99.90;;;;;;5096201;28;19966;-73
2023/04/18 08:59:37;;;;;;;;;;;28.50;99.90;;;;;;5096681;28;19915;-72
2023/04/18 09:02:05;;;;;;;;;;;29.10;99.90;;;;;;5096569;28;19908;-75
2023/04/18 09:04:34;;;;;;;;;;;29.80;99.90;;;;;;5096757;28;20356;-74
2023/04/18 09:07:04;;;;;;;;;;;29.70;99.90;;;;;;5095953;28;19950;-73
2023/04/18 09:09:40;;;;;;;;;;;29.60;99.90;;;;;;5096178;28;19922;-73
2023/04/18 09:12:10;;;;;;;;;;;30.30;99.90;;;;;;5096609;28;19908;-71
2023/04/18 09:14:36;;;;;;;;;;;31.70;99.90;;;;;;5096214;28;19920;-71
2023/04/18 09:17:03;;;;;;;;;;;32.60;99.90;;;;;;5095752;28;19944;-72
2023/04/18 09:19:29;;;;;;;;;;;32.50;99.90;;;;;;5096263;28;20366;-71
2023/04/18 09:21:58;;;;;;;;;;;32.50;99.90;;;;;;5095890;28;19912;-71
2023/04/18 09:24:25;;;;;;;;;;;32.80;99.90;;;;;;5095882;28;20307;-70
2023/04/18 09:26:55;;;;;;;;;;;32.50;99.90;;;;;;5095637;28;19908;-71
2023/04/18 09:29:22;;;;;;;;;;;32.30;99.90;;;;;;5096020;28;19908;-71
2023/04/18 09:31:53;;;;;;;;;;;31.00;99.90;;;;;;5096020;28;19908;-72
2023/04/18 09:34:23;;;;;;;;;;;31.40;99.90;;;;;;5095749;28;20016;-70
2023/04/18 09:37:06;;;;;;;;;;;31.60;99.90;;;;;;5095678;28;19912;-71
2023/04/18 09:39:32;;;;;;;;;;;33.30;99.90;;;;;;5095539;28;19933;-72
2023/04/18 09:41:58;;;;;;;;;;;35.40;99.90;;;;;;5094857;28;19920;-72
2023/04/18 09:44:23;;;;;;;;;;;35.20;99.90;;;;;;5095550;28;20395;-72
2023/04/18 09:46:49;;;;;;;;;;;36.20;99.90;;;;;;5095294;28;20375;-72
2023/04/18 09:49:15;;;;;;;;;;;36.40;99.90;;;;;;5095693;28;19912;-73
2023/04/18 09:51:42;;;;;;;;;;;37.00;99.90;;;;;;5095691;28;19908;-72
2023/04/18 09:54:08;;;;;;;;;;;37.80;99.90;;;;;;5095566;28;20267;-72
2023/04/18 09:56:36;;;;;;;;;;;38.80;99.90;;;;;;5095251;28;20214;-72
2023/04/18 09:59:07;;;;;;;;;;;38.80;99.90;;;;;;5095270;28;19908;-71
2023/04/18 10:01:32;;;;;;;;;;;38.60;99.90;;;;;;5095755;28;20007;-73
2023/04/18 10:03:59;;;;;;;;;;;39.70;99.90;;;;;;5095286;28;19948;-72
2023/04/18 10:06:27;;;;;;;;;;;40.40;99.90;;;;;;5095095;28;20382;-71
2023/04/18 10:08:53;;;;;;;;;;;40.40;99.90;;;;;;5095379;28;20310;-73
2023/04/18 10:11:19;;;;;;;;;;;40.20;99.90;;;;;;5095120;28;19947;-74
2023/04/18 10:13:47;;;;;;;;;;;40.20;99.90;;;;;;5094922;28;20391;-72
2023/04/18 10:16:13;;;;;;;;;;;38.70;99.90;;;;;;5095248;28;19908;-72
2023/04/18 10:18:39;;;;;;;;;;;37.80;99.90;;;;;;5095026;28;20372;-72
2023/04/18 10:21:04;;;;;;;;;;;39.10;99.90;;;;;;5094836;28;19947;-70
2023/04/18 10:23:39;;;;;;;;;;;39.90;99.90;;;;;;5076865;28;19962;-72
2023/04/18 10:26:08;;;;;;;;;;;39.70;99.90;;;;;;5094817;28;19923;-73
2023/04/18 10:28:51;;;;;;;;;;;41.00;99.30;;;;;;5094177;28;20398;-72
2023/04/18 10:31:17;;;;;;;;;;;39.40;99.30;;;;;;5095135;28;19908;-71
2023/04/18 10:33:47;;;;;;;;;;;39.60;99.80;;;;;;5094689;28;19916;-73
2023/04/18 10:36:15;;;;;;;;;;;40.40;99.60;;;;;;5094580;28;19931;-73
2023/04/18 10:38:54;;;;;;;;;;;40.00;99.90;;;;;;5094460;28;20318;-71
2023/04/18 10:41:20;;;;;;;;;;;38.10;99.90;;;;;;5094612;28;20380;-72
2023/04/18 10:44:04;;;;;;;;;;;38.40;99.90;;;;;;5094358;28;19919;-74
2023/04/18 10:46:30;;;;;;;;;;;37.20;99.90;;;;;;5094152;28;20383;-72
2023/04/18 10:49:14;;;;;;;;;;;37.10;99.90;;;;;;5094385;28;19950;-73
2023/04/18 10:51:40;;;;;;;;;;;37.10;99.90;;;;;;5094093;28;20383;-73
2023/04/18 10:54:08;;;;;;;;;;;38.10;99.90;;;;;;5094453;28;19908;-73
2023/04/18 10:56:33;;;;;;;;;;;39.90;99.90;;;;;;5094303;28;20000;-73
2023/04/18 10:59:01;;;;;;;;;;;40.20;99.50;;;;;;5094659;28;19931;-74
2023/04/18 11:01:28;;;;;;;;;;;40.30;99.10;;;;;;5070723;28;19915;-73
2023/04/18 11:03:54;;;;;;;;;;;39.80;99.90;;;;;;5075163;28;20426;-72
2023/04/18 11:06:20;;;;;;;;;;;38.30;99.90;;;;;;5065367;28;20333;-72
2023/04/18 11:08:46;;;;;;;;;;;38.50;99.90;;;;;;5084182;28;19908;-71
2023/04/18 11:11:12;;;;;;;;;;;37.20;99.90;;;;;;5082680;28;19935;-73
2023/04/18 11:13:53;;;;;;;;;;;37.50;99.90;;;;;;5082729;28;19916;-73
2023/04/18 11:16:27;;;;;;;;;;;39.40;99.90;;;;;;5083372;28;19995;-71
2023/04/18 11:18:54;;;;;;;;;;;37.40;99.90;;;;;;5082714;28;19947;-73
2023/04/18 11:21:20;;;;;;;;;;;38.90;99.90;;;;;;5082465;28;19909;-72
2023/04/18 11:23:46;;;;;;;;;;;36.60;99.90;;;;;;5083997;28;19908;-71
2023/04/18 11:26:16;;;;;;;;;;;32.80;99.90;;;;;;5082377;28;20595;-71
2023/04/18 11:28:41;;;;;;;;;;;30.10;99.90;;;;;;5084552;28;19912;-71
2023/04/18 11:31:07;;;;;;;;;;;28.30;99.90;;;;;;5081803;28;19955;-71
2023/04/18 11:33:33;;;;;;;;;;;31.60;99.90;;;;;;5083405;28;20006;-72
2023/04/18 11:35:58;;;;;;;;;;;35.30;99.90;;;;;;5083366;28;19992;-73
2023/04/18 11:38:29;;;;;;;;;;;33.90;99.90;;;;;;5081519;28;19936;-71
2023/04/18 11:40:55;;;;;;;;;;;32.30;99.90;;;;;;5073436;28;20288;-73
2023/04/18 11:43:21;;;;;;;;;;;36.10;99.90;;;;;;5073554;28;19908;-74
2023/04/18 11:45:54;;;;;;;;;;;37.80;99.90;;;;;;5073401;28;19912;-74
2023/04/18 11:48:19;;;;;;;;;;;39.50;99.90;;;;;;5073259;28;19931;-73
2023/04/18 11:50:45;;;;;;;;;;;40.00;99.90;;;;;;5073574;28;19908;-75
2023/04/18 11:53:10;;;;;;;;;;;41.10;99.20;;;;;;5073657;28;20003;-72
2023/04/18 11:55:36;;;;;;;;;;;40.70;99.00;;;;;;5073145;28;19916;-73
2023/04/18 11:58:02;;;;;;;;;;;40.90;98.70;;;;;;5055273;28;20471;-72
2023/04/18 12:00:31;;;;;;;;;;;41.40;98.00;;;;;;5055795;28;19908;-72
2023/04/18 12:02:57;;;;;;;;;;;41.50;98.30;;;;;;5073747;28;19909;-73
2023/04/18 12:05:28;;;;;;;;;;;40.80;98.70;;;;;;5077147;28;19967;-72
2023/04/18 12:07:54;;;;;;;;;;;36.50;99.90;;;;;;5076820;28;19978;-73
2023/04/18 12:10:27;;;;;;;;;;;34.10;99.90;;;;;;5077491;28;19908;-75
2023/04/18 12:12:53;;;;;;;;;;;37.50;99.90;;;;;;5077251;28;20065;-72
2023/04/18 12:15:20;;;;;;;;;;;38.60;99.90;;;;;;5076959;28;20288;-74
2023/04/18 12:17:52;;;;;;;;;;;41.30;98.90;;;;;;5076948;28;20057;-73
2023/04/18 12:20:18;;;;;;;;;;;42.50;97.80;;;;;;5077312;28;20367;-73
2023/04/18 12:22:48;;;;;;;;;;;39.70;98.40;;;;;;5076817;28;19996;-73
2023/04/18 12:25:23;;;;;;;;;;;39.40;99.20;;;;;;5058786;28;19943;-73
2023/04/18 12:27:50;;;;;;;;;;;40.10;99.30;;;;;;5076817;28;20384;-71
2023/04/18 12:30:18;;;;;;;;;;;37.40;99.90;;;;;;5077022;28;20007;-72
2023/04/18 12:32:44;;;;;;;;;;;34.30;99.90;;;;;;5076969;28;19999;-73
2023/04/18 12:35:10;;;;;;;;;;;38.50;99.90;;;;;;5076724;28;19916;-72
2023/04/18 12:37:35;;;;;;;;;;;34.60;99.90;;;;;;5076326;28;19908;-70
2023/04/18 12:40:01;;;;;;;;;;;35.60;99.90;;;;;;5076470;28;20388;-73
2023/04/18 12:42:27;;;;;;;;;;;36.10;99.90;;;;;;5076362;28;19908;-74
2023/04/18 12:44:52;;;;;;;;;;;38.00;99.90;;;;;;5076501;28;20349;-72
2023/04/18 12:47:18;;;;;;;;;;;34.50;99.90;;;;;;5076334;28;19909;-72
2023/04/18 12:49:43;;;;;;;;;;;35.60;99.90;;;;;;5076723;28;19909;-71
2023/04/18 12:52:09;;;;;;;;;;;38.70;99.90;;;;;;5076740;28;20341;-71
2023/04/18 12:54:34;;;;;;;;;;;35.20;99.90;;;;;;5076458;28;19912;-71
2023/04/18 12:57:00;;;;;;;;;;;30.80;99.90;;;;;;5076003;28;19908;-74
2023/04/18 12:59:26;;;;;;;;;;;29.30;99.90;;;;;;5076624;28;20253;-73
2023/04/18 13:01:52;;;;;;;;;;;28.30;99.90;;;;;;5058475;28;19999;-74
2023/04/18 13:04:18;;;;;;;;;;;27.90;99.90;;;;;;5076191;28;20019;-74
2023/04/18 13:06:43;;;;;;;;;;;28.60;99.90;;;;;;5076352;28;20415;-73
2023/04/18 13:09:09;;;;;;;;;;;27.40;99.90;;;;;;5075850;28;19915;-73
2023/04/18 13:11:35;;;;;;;;;;;26.20;99.90;;;;;;5076279;28;19919;-75
2023/04/18 13:14:00;;;;;;;;;;;31.80;99.90;;;;;;5076119;28;20452;-72
2023/04/18 13:16:26;;;;;;;;;;;35.30;99.90;;;;;;5076189;28;19908;-72
2023/04/18 13:18:51;;;;;;;;;;;32.80;99.90;;;;;;5075555;28;19909;-71
2023/04/18 13:21:17;;;;;;;;;;;32.60;99.90;;;;;;5075835;28;19909;-72
2023/04/18 13:23:43;;;;;;;;;;;34.50;99.90;;;;;;5076109;28;20272;-71
2023/04/18 13:26:09;;;;;;;;;;;32.40;99.90;;;;;;5075850;28;19912;-71
2023/04/18 13:28:34;;;;;;;;;;;29.50;99.90;;;;;;5075462;28;19951;-71
2023/04/18 13:31:00;;;;;;;;;;;30.60;99.90;;;;;;5075728;28;19995;-70
2023/04/18 13:33:25;;;;;;;;;;;27.40;99.90;;;;;;5075639;28;19908;-73
2023/04/18 13:35:51;;;;;;;;;;;25.70;99.90;;;;;;5075936;28;19908;-73
2023/04/18 13:38:16;;;;;;;;;;;29.40;99.90;;;;;;5075360;28;19915;-74
2023/04/18 13:40:42;;;;;;;;;;;32.00;99.90;;;;;;5075380;28;19928;-73
2023/04/18 13:43:09;;;;;;;;;;;30.00;99.90;;;;;;5075519;28;19995;-75
2023/04/18 13:45:35;;;;;;;;;;;27.80;99.90;;;;;;5075305;28;19916;-73
2023/04/18 13:48:00;;;;;;;;;;;25.60;99.90;;;;;;5083446;28;19915;-73
2023/04/18 13:50:26;;;;;;;;;;;24.10;99.90;;;;;;5095803;28;19916;-73
2023/04/18 13:52:53;;;;;;;;;;;28.20;99.90;;;;;;5095518;28;19915;-72
2023/04/18 13:55:18;;;;;;;;;;;27.50;99.90;;;;;;5095510;28;19912;-74
2023/04/18 13:57:44;;;;;;;;;;;25.70;99.90;;;;;;5094961;28;19996;-73
2023/04/18 14:00:12;;;;;;;;;;;26.80;99.90;;;;;;5095171;28;19915;-73
2023/04/18 14:02:38;;;;;;;;;;;30.30;99.90;;;;;;5077071;28;19908;-73
2023/04/18 14:05:04;;;;;;;;;;;32.10;99.90;;;;;;5095175;28;19912;-72
2023/04/18 14:07:30;;;;;;;;;;;31.70;99.90;;;;;;5094970;28;20376;-74
2023/04/18 14:09:55;;;;;;;;;;;29.50;99.90;;;;;;5095256;28;19912;-75
2023/04/18 14:12:21;;;;;;;;;;;31.10;99.90;;;;;;5095286;28;19996;-73
2023/04/18 14:14:46;;;;;;;;;;;28.90;99.90;;;;;;5095256;28;19912;-71
2023/04/18 14:17:12;;;;;;;;;;;30.30;99.90;;;;;;5095044;28;20423;-73